Time;durP1;ratioP1;P1;durP2;ratioP2;P2;SDS_P1;SDS_P2;PMS_P1;PMS_P2;Temp;Humidity;BMP_temperature;BMP_pressure;BME280_temperature;BME280_humidity;BME280_pressure;Samples;Min_cycle;Max_cycle;Signal;HPM_P1;HPM_P2
2022/08/10 00:02:16;;;;;;;1.00;0.70;;;22.30;78.60;;;;;;5118613;27;20053;-63
2022/08/10 00:04:42;;;;;;;0.50;0.50;;;22.40;78.70;;;;;;5123553;27;20118;-62
2022/08/10 00:07:08;;;;;;;1.20;0.55;;;22.30;78.60;;;;;;5128810;27;20043;-62
2022/08/10 00:09:33;;;;;;;0.50;0.50;;;22.30;78.60;;;;;;5133659;27;20050;-62
2022/08/10 00:11:59;;;;;;;0.80;0.77;;;22.40;78.70;;;;;;5133969;27;20092;-63
2022/08/10 00:14:25;;;;;;;0.55;0.50;;;22.40;78.70;;;;;;5131726;27;20107;-62
2022/08/10 00:16:50;;;;;;;1.13;0.70;;;22.40;78.70;;;;;;5123711;27;20047;-63
2022/08/10 00:19:16;;;;;;;0.90;0.68;;;22.30;78.70;;;;;;5132876;27;20046;-63
2022/08/10 00:21:42;;;;;;;0.70;0.50;;;22.40;78.80;;;;;;5121483;27;20054;-62
2022/08/10 00:24:08;;;;;;;0.90;0.50;;;22.30;78.70;;;;;;5112970;28;20047;-63
2022/08/10 00:26:33;;;;;;;0.50;0.50;;;22.40;78.80;;;;;;5112085;28;20078;-62
2022/08/10 00:28:59;;;;;;;0.50;0.50;;;22.30;78.70;;;;;;5113220;28;20050;-63
2022/08/10 00:31:25;;;;;;;0.73;0.60;;;22.30;78.80;;;;;;5112278;28;20392;-62
2022/08/10 00:33:50;;;;;;;1.20;0.70;;;22.30;78.80;;;;;;5111905;28;20543;-63
2022/08/10 00:36:16;;;;;;;0.55;0.55;;;22.30;78.80;;;;;;5126276;27;20047;-63
2022/08/10 00:38:42;;;;;;;0.52;0.52;;;22.30;78.80;;;;;;5133325;27;20091;-63
2022/08/10 00:41:07;;;;;;;0.98;0.60;;;22.30;78.90;;;;;;5133438;27;20050;-62
2022/08/10 00:43:33;;;;;;;0.88;0.70;;;22.30;79.50;;;;;;5130151;27;20047;-61
2022/08/10 00:45:59;;;;;;;0.40;0.40;;;22.30;78.90;;;;;;5130024;27;20043;-62
2022/08/10 00:48:24;;;;;;;0.57;0.57;;;22.30;79.50;;;;;;5116888;27;20741;-62
2022/08/10 00:50:50;;;;;;;0.52;0.52;;;22.30;78.90;;;;;;5131951;27;20057;-63
2022/08/10 00:53:16;;;;;;;0.40;0.40;;;22.30;78.90;;;;;;5133411;27;20053;-63
2022/08/10 00:55:42;;;;;;;0.50;0.50;;;22.30;79.00;;;;;;5113277;27;20039;-63
2022/08/10 00:58:08;;;;;;;0.50;0.50;;;22.30;79.00;;;;;;5126696;27;20043;-63
2022/08/10 01:00:33;;;;;;;0.52;0.52;;;22.30;79.00;;;;;;5132210;27;20057;-64
2022/08/10 01:02:59;;;;;;;0.90;0.60;;;22.30;79.00;;;;;;5118728;27;20047;-63
2022/08/10 01:05:25;;;;;;;0.50;0.50;;;22.30;79.00;;;;;;5147465;27;20079;-63
2022/08/10 01:08:19;;;;;;;0.60;0.60;;;22.30;79.10;;;;;;5132612;27;20126;-63
2022/08/10 01:11:00;;;;;;;1.15;0.60;;;22.30;79.00;;;;;;5132366;27;20043;-63
2022/08/10 01:13:32;;;;;;;0.70;0.70;;;22.30;79.10;;;;;;5132803;27;20392;-63
2022/08/10 01:16:10;;;;;;;0.63;0.63;;;22.30;79.10;;;;;;5131515;27;20054;-63
2022/08/10 01:18:51;;;;;;;0.63;0.60;;;22.30;79.10;;;;;;5132099;27;20043;-61
2022/08/10 01:21:39;;;;;;;1.55;0.40;;;22.30;79.10;;;;;;5132652;27;20050;-63
2022/08/10 01:24:23;;;;;;;0.82;0.60;;;22.30;79.10;;;;;;5132324;27;20085;-63
2022/08/10 01:27:14;;;;;;;1.27;0.60;;;22.30;79.20;;;;;;5129621;27;20047;-63
2022/08/10 01:29:51;;;;;;;0.40;0.40;;;22.30;79.20;;;;;;5131778;27;20050;-62
2022/08/10 01:32:42;;;;;;;0.30;0.30;;;22.30;79.20;;;;;;5118140;27;20087;-63
2022/08/10 01:35:10;;;;;;;0.80;0.80;;;22.30;79.20;;;;;;5101246;27;20051;-63
2022/08/10 01:37:41;;;;;;;0.60;0.60;;;22.30;79.30;;;;;;5132770;27;20126;-63
2022/08/10 01:40:12;;;;;;;1.55;0.52;;;22.30;79.30;;;;;;5132531;27;20055;-63
2022/08/10 01:42:39;;;;;;;0.55;0.50;;;22.30;79.30;;;;;;5127132;27;20104;-63
2022/08/10 01:45:07;;;;;;;0.77;0.75;;;22.30;79.30;;;;;;5119038;27;20054;-62
2022/08/10 01:50:52;;;;;;;0.57;0.57;;;22.30;79.40;;;;;;5110774;28;20113;-63
2022/08/10 01:53:24;;;;;;;1.08;0.70;;;22.30;79.40;;;;;;5108424;28;20090;-63
2022/08/10 01:55:53;;;;;;;0.50;0.50;;;22.30;79.40;;;;;;5110980;28;20047;-63
2022/08/10 01:58:21;;;;;;;0.70;0.68;;;22.30;79.50;;;;;;5111315;28;20094;-63
2022/08/10 02:00:50;;;;;;;0.50;0.50;;;22.30;79.50;;;;;;5124727;27;20051;-63
2022/08/10 02:03:18;;;;;;;0.60;0.60;;;22.30;79.50;;;;;;5124805;27;20075;-63
2022/08/10 02:05:51;;;;;;;0.57;0.57;;;22.30;79.50;;;;;;5130652;27;20039;-62
2022/08/10 02:08:19;;;;;;;0.60;0.60;;;22.30;79.50;;;;;;5113373;27;20084;-63
2022/08/10 02:10:47;;;;;;;1.17;0.80;;;22.30;79.50;;;;;;5122268;27;20085;-63
2022/08/10 02:13:16;;;;;;;1.13;0.70;;;22.30;79.50;;;;;;5131976;27;20452;-63
2022/08/10 02:15:44;;;;;;;0.75;0.60;;;22.30;79.50;;;;;;5130712;27;20047;-63
2022/08/10 02:18:11;;;;;;;0.70;0.70;;;22.30;79.60;;;;;;5131600;27;20065;-63
2022/08/10 02:20:42;;;;;;;0.52;0.50;;;22.30;79.60;;;;;;5130906;27;20531;-63
2022/08/10 02:23:16;;;;;;;0.63;0.55;;;22.30;79.60;;;;;;5131494;27;20126;-64
2022/08/10 02:25:43;;;;;;;0.50;0.50;;;22.30;79.60;;;;;;5117600;28;20054;-63
2022/08/10 02:28:13;;;;;;;0.47;0.47;;;22.30;79.70;;;;;;5093159;28;20038;-63
2022/08/10 02:30:40;;;;;;;0.50;0.50;;;22.30;79.70;;;;;;5092145;28;20051;-63
2022/08/10 02:33:08;;;;;;;0.50;0.50;;;22.30;79.70;;;;;;5110563;28;20047;-63
2022/08/10 02:35:35;;;;;;;0.73;0.50;;;22.30;79.70;;;;;;5110217;28;20058;-64
2022/08/10 02:38:04;;;;;;;0.85;0.63;;;22.30;79.70;;;;;;5110624;28;20489;-63
2022/08/10 02:40:37;;;;;;;1.35;0.60;;;22.30;79.70;;;;;;5114550;28;20523;-64
2022/08/10 02:43:24;;;;;;;0.60;0.60;;;22.30;79.70;;;;;;5113044;28;20047;-64
2022/08/10 02:45:59;;;;;;;0.70;0.70;;;22.30;79.80;;;;;;5122821;28;20039;-62
2022/08/10 02:48:39;;;;;;;0.70;0.70;;;22.30;79.80;;;;;;5119616;28;20039;-63
2022/08/10 02:51:11;;;;;;;0.95;0.77;;;22.30;79.80;;;;;;5108961;28;20062;-64
2022/08/10 02:53:43;;;;;;;0.73;0.63;;;22.30;79.80;;;;;;5092928;28;20079;-63
2022/08/10 02:56:15;;;;;;;0.55;0.55;;;22.30;79.80;;;;;;5117747;28;20142;-64
2022/08/10 02:58:44;;;;;;;0.52;0.52;;;22.30;79.80;;;;;;5130835;27;20054;-63
2022/08/10 03:01:13;;;;;;;0.77;0.63;;;22.20;79.80;;;;;;5126873;28;20070;-63
2022/08/10 03:03:51;;;;;;;0.80;0.80;;;22.20;79.80;;;;;;5128942;28;20125;-63
2022/08/10 03:06:20;;;;;;;1.00;0.70;;;22.30;79.90;;;;;;5131268;28;20533;-63
2022/08/10 03:08:47;;;;;;;0.50;0.50;;;22.30;79.90;;;;;;5131135;28;20047;-63
2022/08/10 03:11:20;;;;;;;0.75;0.50;;;22.30;79.90;;;;;;5132931;27;20133;-64
2022/08/10 03:13:49;;;;;;;1.50;0.70;;;22.20;79.90;;;;;;5135170;27;20039;-63
2022/08/10 03:16:16;;;;;;;2.55;1.25;;;22.20;79.90;;;;;;5115380;27;20112;-64
2022/08/10 03:18:43;;;;;;;1.38;0.82;;;22.20;79.90;;;;;;5134149;27;20131;-63
2022/08/10 03:21:09;;;;;;;0.63;0.63;;;22.30;80.00;;;;;;5134154;27;20513;-64
2022/08/10 03:23:36;;;;;;;1.17;0.75;;;22.30;80.00;;;;;;5135218;27;20088;-64
2022/08/10 03:26:02;;;;;;;1.33;0.77;;;22.20;80.40;;;;;;5134366;27;20070;-63
2022/08/10 03:28:30;;;;;;;1.38;0.70;;;22.30;80.10;;;;;;5135102;27;20385;-63
2022/08/10 03:30:58;;;;;;;1.13;0.70;;;22.30;80.10;;;;;;5133172;27;20122;-63
2022/08/10 03:33:26;;;;;;;0.40;0.40;;;22.20;80.10;;;;;;5116841;27;20043;-64
2022/08/10 03:35:52;;;;;;;1.17;0.70;;;22.20;80.10;;;;;;5133486;27;20047;-62
2022/08/10 03:38:18;;;;;;;0.57;0.57;;;22.20;80.10;;;;;;5135002;27;20384;-64
2022/08/10 03:40:46;;;;;;;0.77;0.70;;;22.20;80.10;;;;;;5131153;27;20499;-64
2022/08/10 03:43:18;;;;;;;0.68;0.63;;;22.20;80.10;;;;;;5123826;27;20226;-63
2022/08/10 03:45:50;;;;;;;0.77;0.75;;;22.20;80.20;;;;;;5119461;27;20122;-64
2022/08/10 03:48:18;;;;;;;0.70;0.70;;;22.20;80.20;;;;;;5113663;28;20048;-63
2022/08/10 03:50:45;;;;;;;0.50;0.50;;;22.20;80.20;;;;;;5113019;28;20047;-64
2022/08/10 03:53:11;;;;;;;0.68;0.68;;;22.20;80.20;;;;;;5113256;28;20508;-63
2022/08/10 03:55:37;;;;;;;0.80;0.70;;;22.20;80.20;;;;;;5139446;27;20088;-64
2022/08/10 03:58:03;;;;;;;0.75;0.60;;;22.20;80.20;;;;;;5154412;27;20130;-63
2022/08/10 04:00:33;;;;;;;0.65;0.65;;;22.20;80.20;;;;;;5150769;27;20185;-63
2022/08/10 04:03:03;;;;;;;0.90;0.70;;;22.20;80.30;;;;;;5132820;27;20054;-63
2022/08/10 04:05:30;;;;;;;0.57;0.57;;;22.20;80.30;;;;;;5126906;27;20050;-63
2022/08/10 04:07:57;;;;;;;0.70;0.70;;;22.20;80.30;;;;;;5136471;27;20368;-62
2022/08/10 04:10:23;;;;;;;0.90;0.68;;;22.20;80.30;;;;;;5154667;27;20082;-64
2022/08/10 04:12:49;;;;;;;0.80;0.50;;;22.20;80.30;;;;;;5154929;27;20089;-64
2022/08/10 04:15:14;;;;;;;0.50;0.50;;;22.20;80.40;;;;;;5153330;27;20055;-63
2022/08/10 04:17:40;;;;;;;0.60;0.60;;;22.20;80.40;;;;;;5144905;27;20059;-63
2022/08/10 04:20:10;;;;;;;0.70;0.70;;;22.20;80.40;;;;;;5151172;27;20139;-63
2022/08/10 04:22:37;;;;;;;0.73;0.60;;;22.20;80.40;;;;;;5113274;28;20047;-64
2022/08/10 04:25:04;;;;;;;0.88;0.70;;;22.20;80.40;;;;;;5113036;28;20134;-64
2022/08/10 04:27:30;;;;;;;0.60;0.60;;;22.20;80.50;;;;;;5113327;28;20075;-63
2022/08/10 04:29:56;;;;;;;0.63;0.63;;;22.20;80.50;;;;;;5113169;28;20047;-63
2022/08/10 04:32:23;;;;;;;1.48;0.63;;;22.20;80.50;;;;;;5093679;28;20043;-64
2022/08/10 04:34:53;;;;;;;0.63;0.63;;;22.20;80.50;;;;;;5112381;28;20039;-63
2022/08/10 04:37:20;;;;;;;0.40;0.40;;;22.20;80.50;;;;;;5094170;28;20154;-64
2022/08/10 04:39:47;;;;;;;0.80;0.70;;;22.20;80.50;;;;;;5112994;28;20519;-64
2022/08/10 04:42:13;;;;;;;0.50;0.50;;;22.20;80.50;;;;;;5121122;27;20055;-63
2022/08/10 04:44:41;;;;;;;0.60;0.60;;;22.20;80.60;;;;;;5133434;27;20121;-63
2022/08/10 04:47:06;;;;;;;0.75;0.57;;;22.20;80.60;;;;;;5113750;27;20577;-63
2022/08/10 04:49:32;;;;;;;0.80;0.65;;;22.20;80.60;;;;;;5111973;28;20126;-64
2022/08/10 04:51:58;;;;;;;0.75;0.60;;;22.20;80.60;;;;;;5113080;28;20138;-63
2022/08/10 04:54:24;;;;;;;0.63;0.50;;;22.20;80.60;;;;;;5112369;28;20473;-63
2022/08/10 04:56:50;;;;;;;0.68;0.68;;;22.20;80.70;;;;;;5112608;28;20407;-63
2022/08/10 04:59:16;;;;;;;0.57;0.57;;;22.20;80.70;;;;;;5107885;27;20122;-64
2022/08/10 05:01:43;;;;;;;0.45;0.45;;;22.20;80.60;;;;;;5113690;27;20115;-63
2022/08/10 05:04:08;;;;;;;0.60;0.60;;;22.20;80.70;;;;;;5131521;27;20434;-63
2022/08/10 05:06:34;;;;;;;0.40;0.40;;;22.20;80.70;;;;;;5120867;27;20068;-63
2022/08/10 05:09:00;;;;;;;0.73;0.73;;;22.20;80.70;;;;;;5112622;28;20062;-63
2022/08/10 05:11:25;;;;;;;0.50;0.50;;;22.20;80.70;;;;;;5131568;27;20047;-64
2022/08/10 05:13:51;;;;;;;0.65;0.60;;;22.20;80.70;;;;;;5132814;27;20122;-63
2022/08/10 05:16:17;;;;;;;0.57;0.55;;;22.20;80.70;;;;;;5131336;27;20222;-63
2022/08/10 05:18:42;;;;;;;0.50;0.50;;;22.20;80.70;;;;;;5132175;27;20536;-63
2022/08/10 05:21:08;;;;;;;0.60;0.60;;;22.20;80.70;;;;;;5131949;27;20073;-63
2022/08/10 05:23:34;;;;;;;0.47;0.47;;;22.20;80.70;;;;;;5132926;27;20050;-63
2022/08/10 05:25:59;;;;;;;0.70;0.70;;;22.20;80.70;;;;;;5131820;27;20152;-63
2022/08/10 05:28:25;;;;;;;0.77;0.60;;;22.20;80.80;;;;;;5118222;27;20071;-63
2022/08/10 05:30:51;;;;;;;0.60;0.60;;;22.20;80.80;;;;;;5111093;28;20047;-63
2022/08/10 05:33:16;;;;;;;0.60;0.60;;;22.20;80.80;;;;;;5110921;28;20067;-63
2022/08/10 05:35:42;;;;;;;0.98;0.90;;;22.20;80.80;;;;;;5110630;28;20048;-63
2022/08/10 05:38:11;;;;;;;0.73;0.68;;;22.20;80.80;;;;;;5111003;28;20483;-62
2022/08/10 05:40:38;;;;;;;0.63;0.50;;;22.20;80.90;;;;;;5124613;27;20047;-63
2022/08/10 05:43:05;;;;;;;0.65;0.65;;;22.20;80.90;;;;;;5132468;27;20043;-63
2022/08/10 05:45:30;;;;;;;0.50;0.50;;;22.20;80.90;;;;;;5130685;27;20042;-63
2022/08/10 05:47:56;;;;;;;0.73;0.73;;;22.20;80.90;;;;;;5125476;27;20101;-63
2022/08/10 05:50:26;;;;;;;0.52;0.52;;;22.20;80.90;;;;;;5127545;27;20100;-63
2022/08/10 05:52:53;;;;;;;0.57;0.57;;;22.20;80.90;;;;;;5112119;27;20047;-63
2022/08/10 05:55:19;;;;;;;0.70;0.70;;;22.20;80.90;;;;;;5131580;27;20039;-63
2022/08/10 05:57:46;;;;;;;0.80;0.73;;;22.20;81.00;;;;;;5132117;27;20090;-63
2022/08/10 06:00:18;;;;;;;0.60;0.60;;;22.20;81.00;;;;;;5130930;27;20546;-62
2022/08/10 06:02:49;;;;;;;0.40;0.40;;;22.20;81.00;;;;;;5132178;27;20051;-64
2022/08/10 06:05:19;;;;;;;0.60;0.60;;;22.20;81.00;;;;;;5092925;28;20047;-63
2022/08/10 06:07:47;;;;;;;0.50;0.50;;;22.20;81.00;;;;;;5111720;28;20048;-63
2022/08/10 06:10:15;;;;;;;0.50;0.50;;;22.20;81.00;;;;;;5111450;28;20403;-62
2022/08/10 06:12:43;;;;;;;0.55;0.50;;;22.20;81.00;;;;;;5123857;27;20043;-63
2022/08/10 06:15:10;;;;;;;0.50;0.50;;;22.20;81.00;;;;;;5110635;28;20142;-63
2022/08/10 06:17:37;;;;;;;0.50;0.50;;;22.30;81.10;;;;;;5126507;27;20514;-63
2022/08/10 06:20:03;;;;;;;0.57;0.57;;;22.20;81.00;;;;;;5130793;27;20511;-63
2022/08/10 06:22:32;;;;;;;0.50;0.50;;;22.30;81.10;;;;;;5131268;27;20647;-63
2022/08/10 06:25:00;;;;;;;0.93;0.77;;;22.30;81.10;;;;;;5131822;27;20046;-63
2022/08/10 06:27:26;;;;;;;0.63;0.60;;;22.30;81.10;;;;;;5113894;27;20055;-63
2022/08/10 06:29:52;;;;;;;0.70;0.70;;;22.30;81.10;;;;;;5112879;28;20377;-63
2022/08/10 06:32:24;;;;;;;0.60;0.60;;;22.20;81.00;;;;;;5129817;27;20093;-63
2022/08/10 06:34:52;;;;;;;0.50;0.50;;;22.30;81.10;;;;;;5126251;28;20043;-63
2022/08/10 06:37:22;;;;;;;0.68;0.68;;;22.30;81.10;;;;;;5124480;28;20055;-63
2022/08/10 06:39:47;;;;;;;0.65;0.65;;;22.30;81.10;;;;;;5131384;28;20126;-64
2022/08/10 06:42:31;;;;;;;0.40;0.40;;;22.30;81.20;;;;;;5131253;28;20146;-63
2022/08/10 06:44:59;;;;;;;0.60;0.60;;;22.30;81.20;;;;;;5113418;27;20090;-63
2022/08/10 06:47:31;;;;;;;0.52;0.35;;;22.30;81.20;;;;;;5130860;27;20107;-62
2022/08/10 06:50:02;;;;;;;1.60;0.75;;;22.30;81.10;;;;;;5131973;27;20052;-62
2022/08/10 06:52:31;;;;;;;0.50;0.50;;;22.30;81.10;;;;;;5121221;27;20047;-64
2022/08/10 06:54:58;;;;;;;0.93;0.70;;;22.30;81.20;;;;;;5115328;28;20105;-62
2022/08/10 06:57:27;;;;;;;0.73;0.73;;;22.30;81.10;;;;;;5140945;27;20043;-62
2022/08/10 06:59:55;;;;;;;0.50;0.50;;;22.30;81.10;;;;;;5126689;27;20036;-62
2022/08/10 07:02:36;;;;;;;0.63;0.50;;;22.30;81.10;;;;;;5113425;28;20496;-62
2022/08/10 07:05:05;;;;;;;0.50;0.50;;;22.30;81.10;;;;;;5118076;27;20035;-62
2022/08/10 07:07:35;;;;;;;0.60;0.60;;;22.40;81.20;;;;;;5122426;27;20492;-62
2022/08/10 07:10:01;;;;;;;0.55;0.55;;;22.40;81.20;;;;;;5124384;27;20031;-62
2022/08/10 07:12:29;;;;;;;0.55;0.55;;;22.40;81.20;;;;;;5124957;27;20039;-62
2022/08/10 07:14:56;;;;;;;0.60;0.60;;;22.40;81.20;;;;;;5108212;27;20396;-62
2022/08/10 07:17:25;;;;;;;0.65;0.65;;;22.40;81.20;;;;;;5124374;27;20118;-62
2022/08/10 07:19:54;;;;;;;0.88;0.80;;;22.40;81.20;;;;;;5141767;27;20046;-62
2022/08/10 07:22:23;;;;;;;0.50;0.50;;;22.40;81.20;;;;;;5150662;27;20042;-62
2022/08/10 07:24:50;;;;;;;0.60;0.60;;;22.40;81.20;;;;;;5142719;27;20035;-62
2022/08/10 07:27:17;;;;;;;0.60;0.60;;;22.40;81.20;;;;;;5122641;27;20108;-63
2022/08/10 07:29:44;;;;;;;1.08;0.70;;;22.40;81.20;;;;;;5133986;27;20054;-63
2022/08/10 07:32:12;;;;;;;0.60;0.60;;;22.40;81.20;;;;;;5134693;27;20054;-62
2022/08/10 07:34:39;;;;;;;0.60;0.60;;;22.40;81.20;;;;;;5137299;27;20046;-62
2022/08/10 07:37:07;;;;;;;0.60;0.60;;;22.40;81.20;;;;;;5132457;27;20117;-67
2022/08/10 07:39:36;;;;;;;1.63;1.08;;;22.40;81.30;;;;;;5132551;27;20047;-63
2022/08/10 07:42:04;;;;;;;1.40;0.73;;;22.40;81.20;;;;;;5132984;27;20089;-63
2022/08/10 07:44:32;;;;;;;1.05;0.80;;;22.40;81.20;;;;;;5132717;27;20155;-63
2022/08/10 07:47:02;;;;;;;0.70;0.70;;;22.40;81.20;;;;;;5123927;27;20047;-63
2022/08/10 07:49:35;;;;;;;1.95;0.90;;;22.40;81.30;;;;;;5131189;27;20536;-63
2022/08/10 07:52:05;;;;;;;0.57;0.57;;;22.40;81.30;;;;;;5133996;27;20044;-63
2022/08/10 07:54:37;;;;;;;0.85;0.82;;;22.40;81.30;;;;;;5133226;27;20042;-63
2022/08/10 07:57:08;;;;;;;0.50;0.50;;;22.40;81.30;;;;;;5126466;27;20047;-63
2022/08/10 07:59:40;;;;;;;3.90;0.95;;;22.40;81.20;;;;;;5114411;27;20046;-63
2022/08/10 08:02:17;;;;;;;0.75;0.75;;;22.40;81.30;;;;;;5132629;27;20062;-63
2022/08/10 08:04:44;;;;;;;0.70;0.70;;;22.40;81.30;;;;;;5113721;27;20039;-63
2022/08/10 08:07:12;;;;;;;0.63;0.63;;;22.50;81.40;;;;;;5133564;27;20082;-63
2022/08/10 08:09:38;;;;;;;0.52;0.50;;;22.40;81.30;;;;;;5132837;27;20051;-63
2022/08/10 08:12:06;;;;;;;0.70;0.60;;;22.40;81.30;;;;;;5133009;27;20556;-63
2022/08/10 08:14:33;;;;;;;1.20;0.73;;;22.50;81.30;;;;;;5132614;27;20055;-63
2022/08/10 08:16:59;;;;;;;1.63;0.80;;;22.50;81.40;;;;;;5132182;27;20573;-61
2022/08/10 08:19:25;;;;;;;1.00;0.75;;;22.40;81.30;;;;;;5130243;27;20043;-63
2022/08/10 08:21:54;;;;;;;0.73;0.73;;;22.40;81.30;;;;;;5124344;27;20148;-62
2022/08/10 08:24:22;;;;;;;0.60;0.60;;;22.50;81.40;;;;;;5133230;27;20042;-62
2022/08/10 08:26:49;;;;;;;1.45;0.90;;;22.40;81.30;;;;;;5131972;27;20063;-62
2022/08/10 08:29:15;;;;;;;0.93;0.90;;;22.50;81.40;;;;;;5133240;27;20046;-63
2022/08/10 08:31:43;;;;;;;0.75;0.75;;;22.50;81.40;;;;;;5110529;27;20479;-63
2022/08/10 08:34:12;;;;;;;0.93;0.80;;;22.50;81.40;;;;;;5132176;27;20047;-63
2022/08/10 08:36:41;;;;;;;1.33;0.90;;;22.50;81.40;;;;;;5132292;27;20055;-63
2022/08/10 08:39:07;;;;;;;1.27;1.02;;;22.50;81.50;;;;;;5132568;27;20557;-63
2022/08/10 08:42:08;;;;;;;0.80;0.70;;;22.50;81.40;;;;;;5130927;27;20082;-62
2022/08/10 08:44:49;;;;;;;0.68;0.68;;;22.50;81.50;;;;;;5136979;27;20051;-62
2022/08/10 08:48:05;;;;;;;1.23;0.93;;;22.50;81.40;;;;;;5138509;27;20132;-63
2022/08/10 08:50:59;;;;;;;1.10;1.00;;;22.50;81.50;;;;;;5067477;28;20509;-61
2022/08/10 08:53:43;;;;;;;1.00;0.80;;;22.50;81.40;;;;;;5068598;28;20080;-63
2022/08/10 08:56:30;;;;;;;1.50;0.90;;;22.50;81.40;;;;;;5123330;27;20137;-62
2022/08/10 08:59:04;;;;;;;1.10;0.73;;;22.50;81.40;;;;;;5132019;27;20133;-63
2022/08/10 09:01:57;;;;;;;0.85;0.77;;;22.50;81.40;;;;;;5130962;27;20050;-63
2022/08/10 09:04:46;;;;;;;0.70;0.70;;;22.50;81.50;;;;;;5112953;27;20100;-62
2022/08/10 09:07:18;;;;;;;1.05;0.90;;;22.50;81.40;;;;;;5131205;27;20126;-63
2022/08/10 09:10:03;;;;;;;1.27;0.95;;;22.50;81.40;;;;;;5130919;27;20047;-63
2022/08/10 09:12:50;;;;;;;1.27;0.95;;;22.50;81.40;;;;;;5131753;27;20047;-62
2022/08/10 09:15:50;;;;;;;0.85;0.80;;;22.60;81.50;;;;;;5131124;27;20426;-61
2022/08/10 09:18:44;;;;;;;0.90;0.85;;;22.50;81.50;;;;;;5136422;27;20115;-62
2022/08/10 09:21:29;;;;;;;0.63;0.55;;;22.50;81.50;;;;;;5131632;27;20096;-62
2022/08/10 09:24:04;;;;;;;2.67;1.00;;;22.60;81.60;;;;;;5110459;27;20426;-63
2022/08/10 09:26:48;;;;;;;1.23;0.77;;;22.50;81.50;;;;;;5122718;27;20057;-63
2022/08/10 09:29:22;;;;;;;1.38;1.00;;;22.60;81.60;;;;;;5100641;27;20403;-65
2022/08/10 09:32:08;;;;;;;1.05;0.80;;;22.60;81.60;;;;;;5130259;27;20051;-62
2022/08/10 09:35:17;;;;;;;1.00;0.90;;;22.60;81.60;;;;;;5131016;27;20180;-62
2022/08/10 09:37:46;;;;;;;4.32;1.10;;;22.60;81.20;;;;;;5130419;27;20046;-59
2022/08/10 09:40:20;;;;;;;4.03;1.67;;;22.60;81.80;;;;;;5131472;27;20042;-60
2022/08/10 09:43:18;;;;;;;0.80;0.60;;;22.60;81.80;;;;;;5131329;27;20494;-60
2022/08/10 09:46:07;;;;;;;1.25;0.88;;;22.60;81.30;;;;;;5129756;27;20043;-61
2022/08/10 09:48:56;;;;;;;841.10;82.90;;;22.60;81.30;;;;;;5130780;27;20110;-58
2022/08/10 09:51:58;;;;;;;10.43;2.63;;;22.60;81.50;;;;;;5117545;27;20086;-58
2022/08/10 09:54:42;;;;;;;16.25;2.22;;;22.60;82.00;;;;;;5132284;27;20133;-59
2022/08/10 09:57:35;;;;;;;42.05;3.10;;;22.70;82.00;;;;;;5131252;27;20051;-58
2022/08/10 10:00:11;;;;;;;38.30;4.93;;;22.70;82.60;;;;;;5127281;27;20046;-57
2022/08/10 10:02:53;;;;;;;9.32;2.15;;;22.70;82.40;;;;;;5141674;27;20053;-65
2022/08/10 10:05:40;;;;;;;128.13;12.90;;;22.70;82.30;;;;;;5137400;27;20127;-62
2022/08/10 10:08:31;;;;;;;84.18;6.25;;;22.80;82.70;;;;;;5112633;27;20194;-66
2022/08/10 10:11:18;;;;;;;3.33;0.90;;;22.80;82.60;;;;;;5112405;27;20047;-66
2022/08/10 10:13:56;;;;;;;0.68;0.68;;;22.80;82.50;;;;;;5110468;27;20098;-65
2022/08/10 10:16:36;;;;;;;5.20;0.90;;;22.90;82.50;;;;;;5129929;27;20054;-64
2022/08/10 10:19:16;;;;;;;1.70;1.05;;;22.80;82.40;;;;;;5119710;27;20535;-65
2022/08/10 10:21:58;;;;;;;5.63;1.52;;;;;;;;;;5134040;27;20094;-69
2022/08/10 10:24:38;;;;;;;1.38;0.80;;;;;;;;;;5112896;27;20039;-63
2022/08/10 10:27:20;;;;;;;5.97;1.00;;;;;;;;;;5111586;28;20117;-64
2022/08/10 10:30:01;;;;;;;2.15;0.95;;;;;;;;;;5126584;27;20586;-63
2022/08/10 10:32:33;;;;;;;1.27;1.00;;;;;;;;;;5109471;28;20043;-63
2022/08/10 10:35:07;;;;;;;2.70;1.00;;;;;;;;;;5109172;28;20051;-64
2022/08/10 10:37:35;;;;;;;0.88;0.88;;;;;;;;;;5130327;28;20059;-63
2022/08/10 10:40:02;;;;;;;5.18;1.25;;;;;;;;;;5122779;28;20156;-63
2022/08/10 10:42:37;;;;;;;3.72;1.00;;;;;;;;;;5127194;28;20051;-64
2022/08/10 10:45:18;;;;;;;2.97;1.05;;;;;;;;;;5130348;28;20115;-64
2022/08/10 10:48:11;;;;;;;3.80;1.27;;;;;;;;;;5130757;28;20051;-64
2022/08/10 10:50:43;;;;;;;1.27;0.80;;;;;;;;;;5129633;28;20396;-64
2022/08/10 10:53:12;;;;;;;2.25;0.95;;;;;;;;;;5112352;28;20078;-64
2022/08/10 10:55:50;;;;;;;0.88;0.80;;;;;;;;;;5129612;27;20051;-63
2022/08/10 10:58:16;;;;;;;1.23;1.00;;;;;;;;;;5109949;28;20083;-66
2022/08/10 11:00:48;;;;;;;2.05;0.80;;;;;;;;;;5109142;28;20048;-64
2022/08/10 11:03:26;;;;;;;1.63;0.85;;;;;;;;;;5110282;28;20039;-63
2022/08/10 11:06:28;;;;;;;4.25;1.10;;;;;;;;;;5114292;28;20053;-64
2022/08/10 11:08:57;;;;;;;2.95;1.05;;;;;;;;;;5006603;28;20041;-64
2022/08/10 11:11:25;;;;;;;2.78;1.08;;;;;;;;;;5093612;28;20130;-64
2022/08/10 11:13:54;;;;;;;4.70;1.13;;;;;;;;;;5130133;28;20130;-65
2022/08/10 11:16:42;;;;;;;2.45;1.08;;;;;;;;;;5128847;28;20043;-65
2022/08/10 11:19:20;;;;;;;1.33;1.00;;;;;;;;;;5128768;28;20861;-64
2022/08/10 11:22:01;;;;;;;1.75;0.80;;;22.80;82.80;;;;;;5120521;28;20045;-63
2022/08/10 11:24:43;;;;;;;3.28;1.10;;;22.80;83.20;;;;;;5128526;28;20079;-64
2022/08/10 11:27:24;;;;;;;1.17;0.90;;;22.80;83.20;;;;;;5111735;28;20051;-62
2022/08/10 11:29:56;;;;;;;2.78;1.10;;;22.80;83.20;;;;;;5130337;28;20039;-68
2022/08/10 11:32:49;;;;;;;1.00;0.82;;;22.80;83.20;;;;;;5132044;27;20039;-65
2022/08/10 11:36:07;;;;;;;1.83;0.90;;;22.80;83.30;;;;;;5088149;27;20055;-65
2022/08/10 11:39:12;;;;;;;3.05;1.08;;;22.80;83.10;;;;;;5093042;27;20473;-64
2022/08/10 11:41:41;;;;;;;1.13;1.00;;;22.80;83.30;;;;;;5113489;28;20067;-64
2022/08/10 11:44:25;;;;;;;2.63;1.10;;;22.80;83.20;;;;;;5104131;27;20053;-63
2022/08/10 11:47:13;;;;;;;5.75;1.40;;;22.80;83.20;;;;;;5112109;27;20145;-64
2022/08/10 11:50:23;;;;;;;0.70;0.70;;;22.80;82.70;;;;;;5082371;27;20087;-63
2022/08/10 11:52:54;;;;;;;1.00;0.82;;;22.80;82.40;;;;;;5030115;28;20054;-64
2022/08/10 11:55:23;;;;;;;1.17;0.85;;;22.80;82.60;;;;;;5122316;27;20083;-64
2022/08/10 11:57:51;;;;;;;2.13;1.25;;;22.80;82.60;;;;;;5118189;27;20063;-66
2022/08/10 12:00:18;;;;;;;2.55;1.05;;;22.80;82.60;;;;;;5118817;27;20507;-64
2022/08/10 12:02:49;;;;;;;2.65;1.13;;;22.80;82.60;;;;;;5113227;28;20058;-64
2022/08/10 12:05:18;;;;;;;3.78;1.00;;;22.80;82.60;;;;;;5118496;27;20573;-63
2022/08/10 12:07:53;;;;;;;1.30;1.17;;;22.80;82.70;;;;;;5133896;27;20400;-65
2022/08/10 12:10:22;;;;;;;3.10;1.10;;;22.80;82.70;;;;;;5116353;27;20043;-64
2022/08/10 12:13:11;;;;;;;4.45;1.30;;;22.80;82.70;;;;;;5094855;28;20400;-63
2022/08/10 12:16:01;;;;;;;2.05;1.02;;;22.80;82.70;;;;;;5119708;27;20056;-63
2022/08/10 12:18:32;;;;;;;2.95;1.00;;;22.80;82.70;;;;;;5113013;28;20079;-63
2022/08/10 12:21:03;;;;;;;3.53;1.00;;;22.80;82.70;;;;;;5093360;28;20051;-65
2022/08/10 12:23:28;;;;;;;1.45;1.05;;;22.80;82.70;;;;;;5113084;28;20096;-65
2022/08/10 12:26:30;;;;;;;2.13;0.95;;;22.80;82.70;;;;;;5112779;28;20434;-64
2022/08/10 12:29:26;;;;;;;1.73;1.08;;;22.80;82.70;;;;;;5112623;28;20602;-68
2022/08/10 12:32:09;;;;;;;1.73;1.20;;;22.80;82.70;;;;;;5110893;28;20481;-64
2022/08/10 12:34:51;;;;;;;1.52;1.02;;;22.80;82.60;;;;;;5122070;27;20051;-63
2022/08/10 12:37:20;;;;;;;1.05;0.98;;;22.80;82.60;;;;;;5112034;27;20051;-64
2022/08/10 12:39:46;;;;;;;1.88;1.08;;;22.80;82.60;;;;;;5111263;28;20043;-63
2022/08/10 12:42:30;;;;;;;1.60;1.00;;;22.80;82.60;;;;;;5111718;28;20047;-63
2022/08/10 12:45:04;;;;;;;2.28;1.15;;;22.80;82.60;;;;;;5094500;28;20052;-63
2022/08/10 12:47:30;;;;;;;1.35;0.95;;;22.80;82.60;;;;;;5093524;28;20101;-64
2022/08/10 12:50:34;;;;;;;3.92;0.95;;;22.80;82.60;;;;;;5126723;27;20476;-63
2022/08/10 12:53:13;;;;;;;3.72;1.02;;;22.80;82.60;;;;;;5114364;27;20062;-68
2022/08/10 12:55:41;;;;;;;1.60;1.10;;;22.80;82.60;;;;;;5132838;27;20035;-63
2022/08/10 12:58:12;;;;;;;1.35;1.20;;;22.80;82.60;;;;;;5130397;27;20059;-63
2022/08/10 13:00:38;;;;;;;1.13;1.00;;;22.80;82.50;;;;;;5126510;27;20047;-63
2022/08/10 13:03:06;;;;;;;2.13;1.20;;;22.80;82.50;;;;;;5131724;27;20123;-63
2022/08/10 13:05:33;;;;;;;1.10;1.00;;;22.80;82.50;;;;;;5131290;27;20395;-64
2022/08/10 13:10:55;;;;;;;2.38;1.48;;;22.90;82.40;;;;;;5133985;27;20050;-64
2022/08/10 13:13:26;;;;;;;1.38;0.90;;;22.80;82.30;;;;;;5125970;27;20075;-63
2022/08/10 13:15:56;;;;;;;1.92;1.00;;;22.90;82.30;;;;;;5134236;27;21318;-64
2022/08/10 13:18:30;;;;;;;3.47;1.30;;;22.80;82.20;;;;;;5141704;27;20824;-63
2022/08/10 13:21:06;;;;;;;1.20;0.88;;;22.90;82.20;;;;;;5126569;27;20055;-65
2022/08/10 13:23:41;;;;;;;1.92;0.95;;;22.90;82.20;;;;;;5133549;27;20050;-63
2022/08/10 13:26:13;;;;;;;1.50;1.10;;;22.90;82.20;;;;;;5117597;27;20065;-63
2022/08/10 13:28:48;;;;;;;3.75;1.25;;;22.90;82.20;;;;;;5138275;27;20063;-65